createdAt,value
2023-07-12T00:01:17.922Z,2.22
2023-07-12T00:03:46.290Z,2.17
2023-07-12T00:06:16.010Z,2.13
2023-07-12T00:08:44.065Z,1.50
2023-07-12T00:11:17.360Z,2.40
2023-07-12T00:13:45.271Z,2.28
2023-07-12T00:16:23.666Z,2.00
2023-07-12T00:18:52.469Z,1.80
2023-07-12T00:21:24.268Z,2.63
2023-07-12T00:23:54.132Z,2.72
2023-07-12T00:26:24.734Z,2.22
2023-07-12T00:28:52.721Z,2.50
2023-07-12T00:31:22.346Z,2.58
2023-07-12T00:33:50.412Z,2.55
2023-07-12T00:36:20.963Z,2.60
2023-07-12T00:38:49.556Z,2.10
2023-07-12T00:41:27.802Z,2.63
2023-07-12T00:44:00.722Z,3.38
2023-07-12T00:46:34.060Z,3.15
2023-07-12T00:49:02.134Z,2.90
2023-07-12T00:51:51.104Z,3.38
2023-07-12T00:54:21.528Z,2.70
2023-07-12T00:56:49.497Z,3.38
2023-07-12T00:59:22.293Z,2.85
2023-07-12T01:01:58.703Z,3.95
2023-07-12T01:04:34.874Z,3.55
2023-07-12T01:07:02.748Z,3.28
2023-07-12T01:09:30.690Z,2.65
2023-07-12T01:11:58.795Z,3.25
2023-07-12T01:14:26.713Z,3.65
2023-07-12T01:16:59.758Z,3.50
2023-07-12T01:19:27.628Z,2.95
2023-07-12T01:21:58.178Z,3.28
2023-07-12T01:24:28.230Z,2.58
2023-07-12T01:27:00.947Z,3.42
2023-07-12T01:29:31.176Z,2.70
2023-07-12T01:31:59.214Z,3.25
2023-07-12T01:34:27.335Z,3.13
2023-07-12T01:36:56.474Z,2.80
2023-07-12T01:39:24.260Z,2.78
2023-07-12T01:41:52.065Z,2.95
2023-07-12T01:44:19.872Z,3.00
2023-07-12T01:46:47.669Z,3.20
2023-07-12T01:49:15.984Z,2.70
2023-07-12T01:51:43.801Z,2.65
2023-07-12T01:54:12.933Z,2.70
2023-07-12T01:56:40.691Z,2.70
2023-07-12T01:59:08.430Z,2.88
2023-07-12T02:01:36.290Z,3.25
2023-07-12T02:04:04.213Z,3.72
2023-07-12T02:06:32.021Z,2.72
2023-07-12T02:08:59.850Z,2.88
2023-07-12T02:11:31.572Z,3.13
2023-07-12T02:13:59.657Z,2.40
2023-07-12T02:16:27.647Z,3.03
2023-07-12T02:18:55.504Z,3.22
2023-07-12T02:21:23.344Z,3.33
2023-07-12T02:23:51.089Z,2.88
2023-07-12T02:26:18.858Z,3.25
2023-07-12T02:28:48.016Z,2.83
2023-07-12T02:31:16.650Z,3.00
2023-07-12T02:33:44.401Z,3.67
2023-07-12T02:36:12.180Z,4.13
2023-07-12T02:38:39.942Z,3.83
2023-07-12T02:41:08.273Z,4.10
2023-07-12T02:43:36.506Z,4.25
2023-07-12T02:46:06.182Z,4.47
2023-07-12T02:48:34.240Z,3.88
2023-07-12T02:51:02.004Z,4.07
2023-07-12T02:53:30.376Z,3.47
2023-07-12T02:55:58.173Z,3.13
2023-07-12T02:58:25.967Z,2.50
2023-07-12T03:00:59.124Z,3.33
2023-07-12T03:03:28.721Z,3.50
2023-07-12T03:05:57.287Z,2.88
2023-07-12T03:08:25.058Z,2.60
2023-07-12T03:10:52.873Z,2.90
2023-07-12T03:13:20.677Z,2.72
2023-07-12T03:15:48.475Z,2.63
2023-07-12T03:18:16.329Z,3.22
2023-07-12T03:20:45.580Z,3.10
2023-07-12T03:23:13.365Z,3.15
2023-07-12T03:25:41.110Z,4.32
2023-07-12T03:28:08.842Z,2.97
2023-07-12T03:30:36.638Z,3.08
2023-07-12T03:33:04.471Z,3.67
2023-07-12T03:35:32.331Z,3.60
2023-07-12T03:38:01.487Z,3.47
2023-07-12T03:40:29.378Z,3.90
2023-07-12T03:42:57.117Z,3.70
2023-07-12T03:45:24.979Z,3.20
2023-07-12T03:47:52.846Z,4.40
2023-07-12T03:50:20.824Z,3.92
2023-07-12T03:52:48.615Z,3.50
2023-07-12T03:55:17.960Z,4.53
2023-07-12T03:57:45.692Z,3.85
2023-07-12T04:00:15.030Z,4.47
2023-07-12T04:02:42.840Z,4.32
2023-07-12T04:05:10.703Z,4.60
2023-07-12T04:07:38.449Z,4.57
2023-07-12T04:10:07.352Z,4.63
2023-07-12T04:12:37.154Z,5.13
2023-07-12T04:15:05.592Z,4.70
2023-07-12T04:17:33.432Z,4.85
2023-07-12T04:20:01.244Z,4.65
2023-07-12T04:22:29.148Z,4.30
2023-07-12T04:24:56.972Z,4.65
2023-07-12T04:27:24.949Z,4.75
2023-07-12T04:29:54.055Z,3.85
2023-07-12T04:32:21.815Z,4.63
2023-07-12T04:34:49.733Z,5.95
2023-07-12T04:37:18.799Z,4.93
2023-07-12T04:39:46.725Z,3.95
2023-07-12T04:42:14.468Z,4.55
2023-07-12T04:44:42.216Z,4.78
2023-07-12T04:47:11.548Z,4.78
2023-07-12T04:49:39.498Z,4.43
2023-07-12T04:52:07.869Z,4.30
2023-07-12T04:54:36.230Z,4.22
2023-07-12T04:57:04.233Z,5.30
2023-07-12T04:59:32.200Z,5.30
2023-07-12T05:02:00.096Z,4.90
2023-07-12T05:04:29.758Z,5.18
2023-07-12T05:06:57.486Z,4.85
2023-07-12T05:09:25.252Z,5.30
2023-07-12T05:11:53.633Z,4.13
2023-07-12T05:14:21.416Z,4.28
2023-07-12T05:16:49.243Z,4.55
2023-07-12T05:19:17.007Z,4.03
2023-07-12T05:21:46.495Z,4.68
2023-07-12T05:24:14.281Z,5.25
2023-07-12T05:26:42.051Z,4.05
2023-07-12T05:29:13.564Z,4.25
2023-07-12T05:31:43.337Z,4.78
2023-07-12T05:34:12.703Z,4.95
2023-07-12T05:36:40.440Z,4.28
2023-07-12T05:39:09.638Z,4.40
2023-07-12T05:41:37.397Z,4.43
2023-07-12T05:44:05.289Z,4.03
2023-07-12T05:46:33.469Z,4.13
2023-07-12T05:49:02.049Z,3.28
2023-07-12T05:51:29.845Z,3.88
2023-07-12T05:53:57.705Z,4.55
2023-07-12T05:56:26.825Z,4.05
2023-07-12T05:58:54.608Z,4.75
2023-07-12T06:01:22.667Z,5.78
2023-07-12T06:03:50.632Z,3.92
2023-07-12T06:06:18.450Z,3.53
2023-07-12T06:08:46.385Z,4.10
2023-07-12T06:11:14.625Z,4.13
2023-07-12T06:13:44.294Z,3.53
2023-07-12T06:16:12.130Z,3.80
2023-07-12T06:18:40.034Z,4.53
2023-07-12T06:21:09.616Z,3.25
2023-07-12T06:23:38.031Z,4.15
2023-07-12T06:26:07.157Z,3.33
2023-07-12T06:28:34.969Z,4.70
2023-07-12T06:31:04.751Z,3.50
2023-07-12T06:33:32.640Z,3.72
2023-07-12T06:36:01.384Z,5.43
2023-07-12T06:38:29.532Z,3.50
2023-07-12T06:40:57.506Z,3.92
2023-07-12T06:43:26.194Z,4.25
2023-07-12T06:45:56.345Z,3.28
2023-07-12T06:48:26.294Z,4.00
2023-07-12T06:50:55.663Z,3.70
2023-07-12T06:53:23.479Z,3.75
2023-07-12T06:55:51.267Z,3.53
2023-07-12T06:58:19.136Z,2.97
2023-07-12T07:00:47.014Z,3.88
2023-07-12T07:03:16.792Z,3.30
2023-07-12T07:05:47.099Z,3.17
2023-07-12T07:08:19.777Z,3.25
2023-07-12T07:10:52.138Z,4.55
2023-07-12T07:13:20.080Z,3.28
2023-07-12T07:15:48.100Z,3.35
2023-07-12T07:18:16.337Z,3.53
2023-07-12T07:20:46.442Z,4.50
2023-07-12T07:23:15.318Z,3.88
2023-07-12T07:25:43.884Z,3.63
2023-07-12T07:28:12.439Z,3.55
2023-07-12T07:30:40.306Z,3.25
2023-07-12T07:33:08.656Z,3.47
2023-07-12T07:35:39.891Z,3.20
2023-07-12T07:38:09.069Z,2.83
2023-07-12T07:40:40.835Z,3.08
2023-07-12T07:43:08.842Z,3.08
2023-07-12T07:45:36.816Z,3.28
2023-07-12T07:48:05.652Z,3.03
2023-07-12T07:50:33.586Z,3.20
2023-07-12T07:53:01.337Z,3.03
2023-07-12T07:55:30.466Z,2.42
2023-07-12T07:57:58.271Z,3.33
2023-07-12T08:00:26.297Z,3.53
2023-07-12T08:02:54.758Z,2.95
2023-07-12T08:05:22.622Z,2.78
2023-07-12T08:07:51.676Z,3.55
2023-07-12T08:10:20.120Z,2.95
2023-07-12T08:12:50.012Z,3.53
2023-07-12T08:15:19.951Z,3.38
2023-07-12T08:17:47.836Z,3.15
2023-07-12T08:20:15.938Z,2.90
2023-07-12T08:22:43.797Z,2.83
2023-07-12T08:25:12.825Z,2.60
2023-07-12T08:27:40.628Z,2.63
2023-07-12T08:30:11.254Z,2.35
2023-07-12T08:32:39.200Z,2.72
2023-07-12T08:35:08.127Z,2.50
2023-07-12T08:37:35.903Z,2.90
2023-07-12T08:40:03.689Z,2.72
2023-07-12T08:42:37.286Z,2.30
2023-07-12T08:47:46.266Z,2.42
2023-07-12T08:50:16.104Z,2.08
2023-07-12T08:52:45.925Z,2.65
2023-07-12T08:55:17.765Z,2.10
2023-07-12T08:57:45.716Z,2.30
2023-07-12T09:00:21.042Z,2.53
2023-07-12T09:02:50.965Z,2.40
2023-07-12T09:05:21.013Z,2.72
2023-07-12T09:07:55.494Z,2.88
2023-07-12T09:10:36.540Z,1.88
2023-07-12T09:13:04.418Z,3.00
2023-07-12T09:15:35.487Z,1.83
2023-07-12T09:18:08.079Z,1.70
2023-07-12T09:20:41.628Z,1.70
2023-07-12T09:23:14.788Z,1.77
2023-07-12T09:25:45.362Z,2.03
2023-07-12T09:28:14.933Z,2.13
2023-07-12T09:30:44.773Z,3.15
2023-07-12T09:33:25.298Z,2.45
2023-07-12T09:35:53.830Z,1.77
2023-07-12T09:38:25.851Z,1.70
2023-07-12T09:40:56.027Z,2.05
2023-07-12T09:43:26.173Z,1.77
2023-07-12T09:46:12.281Z,1.58
2023-07-12T09:48:48.713Z,2.20
2023-07-12T09:51:29.839Z,1.85
2023-07-12T09:54:01.912Z,2.33
2023-07-12T09:56:36.823Z,2.05
2023-07-12T09:59:12.250Z,2.70
2023-07-12T10:01:49.882Z,1.58
2023-07-12T10:04:41.684Z,1.65
2023-07-12T10:07:16.998Z,2.03
2023-07-12T10:09:49.728Z,1.77
2023-07-12T10:12:27.568Z,1.73
2023-07-12T10:14:57.425Z,1.75
2023-07-12T10:17:32.955Z,2.53
2023-07-12T10:20:03.953Z,2.13
2023-07-12T10:22:36.210Z,1.60
2023-07-12T10:25:11.472Z,2.38
2023-07-12T10:27:47.450Z,2.03
2023-07-12T10:30:18.890Z,1.88
2023-07-12T10:32:51.373Z,1.58
2023-07-12T10:35:24.467Z,2.20
2023-07-12T10:37:59.253Z,1.77
2023-07-12T10:40:31.017Z,1.55
2023-07-12T10:43:03.145Z,1.70
2023-07-12T10:45:35.617Z,2.05
2023-07-12T10:48:06.075Z,1.67
2023-07-12T10:50:39.873Z,1.80
2023-07-12T10:53:33.540Z,1.83
2023-07-12T10:56:14.469Z,1.52
2023-07-12T10:58:51.537Z,1.80
2023-07-12T11:01:41.313Z,2.03
2023-07-12T11:04:13.850Z,1.80
2023-07-12T11:06:57.862Z,1.43
2023-07-12T11:09:26.892Z,1.48
2023-07-12T11:12:07.373Z,2.13
2023-07-12T11:14:49.956Z,1.75
2023-07-12T11:17:22.094Z,1.52
2023-07-12T11:20:03.486Z,2.05
2023-07-12T11:22:54.630Z,1.50
2023-07-12T11:25:33.238Z,1.92
2023-07-12T11:28:04.808Z,1.77
2023-07-12T11:30:44.976Z,1.80
2023-07-12T11:33:28.241Z,1.65
2023-07-12T11:36:02.788Z,1.90
2023-07-12T11:38:35.495Z,1.85
2023-07-12T11:41:06.629Z,1.90
2023-07-12T11:43:37.621Z,1.88
2023-07-12T11:46:14.886Z,1.50
2023-07-12T11:48:46.590Z,1.67
2023-07-12T11:51:20.823Z,1.50
2023-07-12T11:53:57.632Z,1.63
2023-07-12T11:56:26.404Z,1.30
2023-07-12T11:58:54.284Z,1.42
2023-07-12T12:01:23.476Z,1.23
2023-07-12T12:03:52.776Z,1.55
2023-07-12T12:06:22.040Z,1.58
2023-07-12T12:08:55.454Z,1.05
2023-07-12T12:11:29.047Z,1.42
2023-07-12T12:16:33.554Z,1.23
2023-07-12T12:19:09.714Z,1.10
2023-07-12T12:21:48.981Z,1.13
2023-07-12T12:24:19.740Z,1.20
2023-07-12T12:26:51.004Z,1.10
2023-07-12T12:29:21.988Z,1.65
2023-07-12T12:31:55.279Z,1.20
2023-07-12T12:34:27.206Z,1.35
2023-07-12T12:37:00.140Z,1.23
2023-07-12T12:39:28.822Z,1.00
2023-07-12T12:42:00.507Z,1.20
2023-07-12T12:44:32.931Z,1.08
2023-07-12T12:47:18.483Z,1.17
2023-07-12T12:55:04.557Z,1.10
2023-07-12T12:58:08.328Z,1.10
2023-07-12T13:05:34.895Z,1.20
2023-07-12T13:20:51.820Z,1.43
2023-07-12T13:25:52.459Z,2.45
2023-07-12T13:28:22.811Z,1.40
2023-07-12T13:30:55.822Z,1.25
2023-07-12T13:33:25.250Z,1.15
2023-07-12T13:44:09.690Z,0.85
2023-07-12T13:46:16.845Z,0.70
2023-07-12T13:48:44.690Z,1.60
2023-07-12T13:51:20.702Z,0.88
2023-07-12T13:53:49.286Z,0.85
2023-07-12T14:01:26.048Z,0.80
2023-07-12T14:03:55.692Z,1.05
2023-07-12T14:06:53.262Z,1.15
2023-07-12T14:09:12.118Z,0.95
2023-07-12T14:11:39.947Z,1.00
2023-07-12T14:14:14.245Z,1.10
2023-07-12T14:16:42.278Z,1.10
2023-07-12T14:19:10.309Z,1.25
2023-07-12T14:21:39.065Z,1.38
2023-07-12T14:24:07.666Z,1.05
2023-07-12T14:26:35.620Z,1.30
2023-07-12T14:29:06.180Z,1.42
2023-07-12T14:31:38.367Z,1.47
2023-07-12T14:34:06.605Z,1.38
2023-07-12T14:36:35.605Z,1.20
2023-07-12T14:39:03.511Z,1.23
2023-07-12T14:41:35.858Z,1.00
2023-07-12T14:44:17.964Z,0.88
2023-07-12T14:46:47.479Z,1.00
2023-07-12T14:49:15.758Z,1.00
2023-07-12T14:51:55.532Z,0.90
2023-07-12T14:54:36.314Z,1.05
2023-07-12T14:57:24.594Z,1.10
2023-07-12T14:59:59.022Z,1.00
2023-07-12T15:02:30.396Z,0.88
2023-07-12T15:05:00.537Z,1.48
2023-07-12T15:07:31.800Z,1.25
2023-07-12T15:10:04.749Z,1.27
2023-07-12T15:12:38.982Z,1.25
2023-07-12T15:15:15.511Z,1.00
2023-07-12T15:17:53.495Z,1.25
2023-07-12T15:20:25.165Z,1.33
2023-07-12T15:22:55.072Z,1.30
2023-07-12T15:25:46.951Z,1.17
2023-07-12T15:28:17.059Z,1.20
2023-07-12T15:30:46.925Z,1.30
2023-07-12T15:33:22.093Z,1.38
2023-07-12T15:35:51.404Z,1.48
2023-07-12T15:38:19.983Z,1.50
2023-07-12T15:40:54.586Z,2.05
2023-07-12T15:43:38.057Z,1.27
2023-07-12T15:46:07.861Z,1.27
2023-07-12T15:48:37.666Z,1.25
2023-07-12T15:51:14.567Z,1.50
2023-07-12T15:53:44.798Z,1.38
2023-07-12T15:56:18.258Z,1.10
2023-07-12T16:01:19.229Z,1.42
2023-07-12T16:03:48.915Z,1.17
2023-07-12T16:06:17.588Z,1.00
2023-07-12T16:08:46.794Z,1.15
2023-07-12T16:11:23.467Z,1.20
2023-07-12T16:16:27.080Z,0.95
2023-07-12T16:18:56.628Z,0.70
2023-07-12T16:21:26.133Z,0.88
2023-07-12T16:23:55.755Z,1.30
2023-07-12T16:26:30.447Z,1.20
2023-07-12T16:28:59.547Z,1.40
2023-07-12T16:31:34.375Z,1.17
2023-07-12T16:34:06.892Z,1.75
2023-07-12T16:36:35.686Z,1.30
2023-07-12T16:39:03.626Z,1.30
2023-07-12T16:41:33.043Z,1.75
2023-07-12T16:44:01.257Z,1.52
2023-07-12T16:46:30.590Z,1.70
2023-07-12T16:48:59.420Z,2.00
2023-07-12T16:51:31.661Z,1.52
2023-07-12T16:54:00.339Z,2.60
2023-07-12T16:56:30.762Z,1.92
2023-07-12T16:58:58.633Z,1.90
2023-07-12T17:01:28.322Z,1.95
2023-07-12T17:03:58.274Z,2.08
2023-07-12T17:06:26.526Z,2.50
2023-07-12T17:08:57.625Z,1.77
2023-07-12T17:11:27.360Z,1.40
2023-07-12T17:13:55.746Z,2.40
2023-07-12T17:16:24.450Z,1.83
2023-07-12T17:18:55.393Z,2.55
2023-07-12T17:21:23.405Z,1.55
2023-07-12T17:23:52.012Z,2.00
2023-07-12T17:26:22.221Z,1.83
2023-07-12T17:28:50.398Z,2.40
2023-07-12T17:31:22.775Z,2.53
2023-07-12T17:33:51.193Z,2.10
2023-07-12T17:36:20.806Z,2.13
2023-07-12T17:38:49.521Z,1.60
2023-07-12T17:41:20.606Z,1.73
2023-07-12T17:43:50.223Z,1.75
2023-07-12T17:46:18.236Z,1.50
2023-07-12T17:48:46.657Z,1.50
2023-07-12T17:51:18.543Z,1.73
2023-07-12T17:53:47.429Z,1.88
2023-07-12T17:56:16.284Z,1.80
2023-07-12T17:58:45.879Z,1.90
2023-07-12T18:01:20.488Z,1.83
2023-07-12T18:03:48.582Z,1.63
2023-07-12T18:06:17.957Z,2.78
2023-07-12T18:08:46.456Z,1.50
2023-07-12T18:11:26.011Z,1.50
2023-07-12T18:13:54.122Z,2.08
2023-07-12T18:16:23.777Z,1.50
2023-07-12T18:18:52.465Z,1.58
2023-07-12T18:21:25.123Z,1.85
2023-07-12T18:23:53.166Z,1.55
2023-07-12T18:26:21.974Z,2.05
2023-07-12T18:28:52.607Z,1.42
2023-07-12T18:31:24.794Z,1.65
2023-07-12T18:33:52.960Z,1.63
2023-07-12T18:36:23.363Z,2.78
2023-07-12T18:38:53.449Z,2.17
2023-07-12T18:41:23.124Z,2.65
2023-07-12T18:43:52.275Z,2.42
2023-07-12T18:46:21.069Z,2.75
2023-07-12T18:48:50.533Z,2.65
2023-07-12T18:51:22.326Z,2.30
2023-07-12T18:53:50.190Z,2.90
2023-07-12T18:56:20.013Z,1.63
2023-07-12T18:58:48.097Z,1.90
2023-07-12T19:01:18.196Z,1.65
2023-07-12T19:03:46.470Z,2.38
2023-07-12T19:06:19.393Z,1.92
2023-07-12T19:08:47.567Z,1.70
2023-07-12T19:11:27.102Z,2.65
2023-07-12T19:13:54.910Z,2.20
2023-07-12T19:16:23.896Z,2.78
2023-07-12T19:18:52.425Z,2.45
2023-07-12T19:21:28.117Z,2.47
2023-07-12T19:23:57.586Z,2.05
2023-07-12T19:26:27.627Z,2.22
2023-07-12T19:28:55.489Z,2.00
2023-07-12T19:31:25.412Z,2.00
2023-07-12T19:33:54.739Z,2.38
2023-07-12T19:36:25.671Z,1.80
2023-07-12T19:38:53.866Z,1.83
2023-07-12T19:41:23.121Z,1.60
2023-07-12T19:43:51.993Z,1.70
2023-07-12T19:46:21.197Z,2.42
2023-07-12T19:48:49.823Z,2.80
2023-07-12T19:51:23.807Z,2.45
2023-07-12T19:53:55.073Z,2.13
2023-07-12T19:56:23.537Z,2.35
2023-07-12T19:58:53.821Z,2.78
2023-07-12T20:01:25.306Z,2.35
2023-07-12T20:03:54.174Z,2.15
2023-07-12T20:06:23.461Z,2.33
2023-07-12T20:08:55.206Z,1.90
2023-07-12T20:11:24.465Z,1.90
2023-07-12T20:13:53.388Z,1.95
2023-07-12T20:16:23.409Z,1.92
2023-07-12T20:18:51.295Z,1.70
2023-07-12T20:21:19.186Z,1.98
2023-07-12T20:23:47.063Z,2.30
2023-07-12T20:26:16.436Z,2.33
2023-07-12T20:28:44.204Z,2.15
2023-07-12T20:31:14.362Z,1.77
2023-07-12T20:33:43.901Z,1.58
2023-07-12T20:36:12.764Z,2.05
2023-07-12T20:38:40.818Z,1.77
2023-07-12T20:41:08.889Z,2.30
2023-07-12T20:43:38.672Z,2.08
2023-07-12T20:46:09.246Z,2.22
2023-07-12T20:48:38.487Z,1.90
2023-07-12T20:51:11.252Z,2.30
2023-07-12T20:53:41.791Z,2.30
2023-07-12T20:56:09.868Z,1.90
2023-07-12T20:58:39.640Z,1.98
2023-07-12T21:01:11.379Z,1.83
2023-07-12T21:03:39.791Z,2.53
2023-07-12T21:06:08.537Z,2.10
2023-07-12T21:08:38.115Z,2.38
2023-07-12T21:11:07.745Z,2.25
2023-07-12T21:13:36.276Z,3.08
2023-07-12T21:16:07.972Z,2.00
2023-07-12T21:18:35.927Z,2.58
2023-07-12T21:21:04.791Z,3.55
2023-07-12T21:23:33.147Z,2.10
2023-07-12T21:26:01.830Z,2.00
2023-07-12T21:28:30.235Z,2.88
2023-07-12T21:30:58.665Z,4.15
2023-07-12T21:33:27.935Z,2.30
2023-07-12T21:35:57.803Z,2.53
2023-07-12T21:38:27.544Z,2.25
2023-07-12T21:41:08.195Z,2.60
2023-07-12T21:43:37.275Z,3.17
2023-07-12T21:46:06.053Z,1.85
2023-07-12T21:48:35.868Z,2.42
2023-07-12T21:51:04.656Z,2.92
2023-07-12T21:53:32.883Z,2.55
2023-07-12T21:56:00.812Z,2.55
2023-07-12T21:58:30.135Z,2.20
2023-07-12T22:00:58.009Z,2.72
2023-07-12T22:03:26.243Z,2.63
2023-07-12T22:05:55.600Z,2.40
2023-07-12T22:08:24.822Z,2.53
2023-07-12T22:10:52.613Z,4.57
2023-07-12T22:13:20.702Z,2.80
2023-07-12T22:15:50.775Z,2.50
2023-07-12T22:18:18.516Z,2.17
2023-07-12T22:20:46.377Z,2.83
2023-07-12T22:23:15.592Z,2.47
2023-07-12T22:25:43.458Z,2.22
2023-07-12T22:28:11.217Z,3.42
2023-07-12T22:30:40.646Z,3.17
2023-07-12T22:33:08.996Z,2.45
2023-07-12T22:35:36.936Z,3.22
2023-07-12T22:38:06.182Z,2.38
2023-07-12T22:40:36.583Z,2.35
2023-07-12T22:43:04.369Z,2.67
2023-07-12T22:45:32.146Z,2.47
2023-07-12T22:48:00.259Z,2.72
2023-07-12T22:50:28.192Z,1.95
2023-07-12T22:52:56.278Z,3.30
2023-07-12T22:55:24.913Z,2.40
2023-07-12T22:57:54.026Z,3.22
2023-07-12T23:00:23.022Z,2.22
2023-07-12T23:02:52.634Z,2.38
2023-07-12T23:05:21.391Z,2.85
2023-07-12T23:07:49.612Z,3.15
2023-07-12T23:10:19.262Z,2.88
2023-07-12T23:12:47.072Z,2.42
2023-07-12T23:15:19.417Z,3.28
2023-07-12T23:17:47.339Z,2.88
2023-07-12T23:20:17.101Z,2.63
2023-07-12T23:22:45.157Z,3.67
2023-07-12T23:25:14.183Z,3.17
2023-07-12T23:27:43.301Z,2.40
2023-07-12T23:30:12.353Z,2.33
2023-07-12T23:32:41.631Z,2.78
2023-07-12T23:35:09.674Z,2.55
2023-07-12T23:37:37.459Z,2.45
2023-07-12T23:40:06.872Z,2.45
2023-07-12T23:42:35.986Z,2.20
2023-07-12T23:45:04.221Z,2.38
2023-07-12T23:47:32.412Z,2.10
2023-07-12T23:50:02.319Z,1.85
2023-07-12T23:52:30.138Z,2.45
2023-07-12T23:54:57.927Z,2.50
2023-07-12T23:57:25.694Z,2.17
2023-07-12T23:59:53.804Z,2.40
